Time;durP1;ratioP1;P1;durP2;ratioP2;P2;SDS_P1;SDS_P2;PMS_P1;PMS_P2;Temp;Humidity;BMP_temperature;BMP_pressure;BME280_temperature;BME280_humidity;BME280_pressure;Samples;Min_cycle;Max_cycle;Signal;HPM_P1;HPM_P2
2022/07/16 00:02:33;;;;;;;2.22;1.12;;;;;;;13.59;71.07;98273.11;1680859;84;21456;-59
2022/07/16 00:05:00;;;;;;;3.05;1.10;;;;;;;13.58;70.04;98279.61;1681195;85;20929;-60
2022/07/16 00:07:27;;;;;;;3.52;1.27;;;;;;;13.60;70.38;98276.06;1677645;84;20925;-60
2022/07/16 00:09:53;;;;;;;3.00;0.90;;;;;;;13.59;70.68;98279.84;1674582;84;21245;-59
2022/07/16 00:12:20;;;;;;;5.10;1.10;;;;;;;13.56;71.45;98281.81;1674477;84;20901;-59
2022/07/16 00:14:46;;;;;;;2.37;1.00;;;;;;;13.48;72.38;98281.16;1662121;85;20959;-60
2022/07/16 00:17:14;;;;;;;2.27;1.10;;;;;;;13.40;72.88;98285.89;1681705;84;21016;-59
2022/07/16 00:19:41;;;;;;;2.70;1.20;;;;;;;13.32;73.69;98285.27;1680490;84;21396;-60
2022/07/16 00:22:08;;;;;;;2.92;1.00;;;;;;;13.25;73.94;98278.70;1678233;85;21109;-60
2022/07/16 00:24:35;;;;;;;3.52;1.00;;;;;;;13.18;74.33;98280.45;1674824;84;20869;-60
2022/07/16 00:27:02;;;;;;;3.47;1.10;;;;;;;13.14;74.64;98286.73;1674775;84;20944;-60
2022/07/16 00:29:29;;;;;;;2.33;0.98;;;;;;;13.12;74.76;98284.33;1671872;85;21052;-60
2022/07/16 00:31:56;;;;;;;2.50;1.10;;;;;;;13.14;75.47;98282.70;1676151;84;21036;-59
2022/07/16 00:34:23;;;;;;;3.05;0.88;;;;;;;13.14;75.99;98283.50;1676163;84;21118;-60
2022/07/16 00:36:49;;;;;;;3.83;1.00;;;;;;;13.11;76.43;98278.72;1680751;84;20920;-59
2022/07/16 00:39:17;;;;;;;2.83;1.22;;;;;;;13.08;76.99;98280.65;1678791;85;21003;-60
2022/07/16 00:41:45;;;;;;;4.95;1.20;;;;;;;13.04;77.70;98272.91;1676318;84;21125;-60
2022/07/16 00:44:17;;;;;;;4.80;1.10;;;;;;;13.02;78.16;98275.10;1683981;84;21008;-60
2022/07/16 00:46:45;;;;;;;4.83;1.22;;;;;;;12.98;78.44;98271.39;1678739;85;21276;-60
2022/07/16 00:49:12;;;;;;;2.42;1.10;;;;;;;12.92;78.81;98275.29;1685405;84;21096;-60
2022/07/16 00:51:49;;;;;;;4.97;1.40;;;;;;;12.83;79.02;98281.11;1679833;84;21082;-60
2022/07/16 00:54:16;;;;;;;5.03;1.07;;;;;;;12.77;79.20;98283.63;1676508;84;20969;-60
2022/07/16 00:56:43;;;;;;;4.17;1.10;;;;;;;12.64;79.41;98276.36;1678450;84;20984;-60
2022/07/16 00:59:11;;;;;;;4.15;1.02;;;;;;;12.55;79.79;98278.14;1678722;85;21127;-60
2022/07/16 01:01:38;;;;;;;4.25;1.17;;;;;;;12.51;80.03;98282.48;1677080;85;21055;-59
2022/07/16 01:04:06;;;;;;;3.90;1.00;;;;;;;12.48;80.20;98277.72;1680227;84;20925;-60
2022/07/16 01:06:33;;;;;;;5.97;1.40;;;;;;;12.44;80.46;98276.70;1661037;85;20889;-60
2022/07/16 01:09:00;;;;;;;4.35;1.12;;;;;;;12.38;80.34;98265.80;1675509;84;20992;-61
2022/07/16 01:11:28;;;;;;;4.17;1.20;;;;;;;12.33;80.63;98266.14;1682755;84;21117;-60
2022/07/16 01:13:54;;;;;;;7.70;1.22;;;;;;;12.28;80.99;98261.39;1654071;84;20859;-60
2022/07/16 01:16:21;;;;;;;8.30;1.45;;;;;;;12.23;81.25;98262.82;1681223;83;20925;-60
2022/07/16 01:18:47;;;;;;;4.42;1.20;;;;;;;12.19;81.52;98262.63;1674672;84;21043;-60
2022/07/16 01:21:15;;;;;;;4.30;1.40;;;;;;;12.17;81.79;98259.44;1678532;85;20940;-61
2022/07/16 01:23:45;;;;;;;3.35;1.12;;;;;;;12.12;82.05;98267.58;1680550;84;21099;-60
2022/07/16 01:26:11;;;;;;;3.95;1.45;;;;;;;12.10;82.28;98254.98;1683336;84;20984;-60
2022/07/16 01:28:38;;;;;;;5.10;1.40;;;;;;;12.05;82.40;98257.75;1676333;84;20915;-60
2022/07/16 01:31:04;;;;;;;2.08;1.27;;;;;;;12.02;82.50;98258.87;1669504;84;21045;-60
2022/07/16 01:33:34;;;;;;;2.85;1.07;;;;;;;11.95;82.65;98259.25;1674292;84;21460;-59
2022/07/16 01:36:09;;;;;;;2.33;0.93;;;;;;;11.91;82.92;98258.24;1677574;84;21224;-60
2022/07/16 01:38:39;;;;;;;5.35;1.05;;;;;;;11.86;83.11;98252.14;1675120;85;21096;-60
2022/07/16 01:41:05;;;;;;;4.90;1.47;;;;;;;11.81;83.31;98252.22;1678682;84;21072;-60
2022/07/16 01:43:33;;;;;;;5.42;1.42;;;;;;;11.79;83.64;98255.20;1678506;85;21542;-60
2022/07/16 01:46:00;;;;;;;6.47;1.75;;;;;;;11.80;83.85;98247.95;1679386;84;20928;-60
2022/07/16 01:48:27;;;;;;;8.60;2.35;;;;;;;11.76;84.00;98249.61;1673471;84;21119;-60
2022/07/16 01:50:54;;;;;;;2.87;1.32;;;;;;;11.72;84.12;98254.77;1676772;84;20952;-61
2022/07/16 01:53:21;;;;;;;3.47;1.12;;;;;;;11.69;84.13;98256.69;1681980;84;21012;-61
2022/07/16 01:55:47;;;;;;;5.45;1.10;;;;;;;11.63;84.31;98255.92;1675402;83;21494;-60
2022/07/16 01:58:14;;;;;;;4.30;1.10;;;;;;;11.59;84.41;98262.16;1676915;84;20916;-61
2022/07/16 02:00:44;;;;;;;3.30;1.42;;;;;;;11.55;84.36;98260.61;1680522;84;21304;-60
2022/07/16 02:03:12;;;;;;;7.22;1.15;;;;;;;11.51;84.50;98256.92;1680446;84;21063;-60
2022/07/16 02:05:41;;;;;;;5.08;1.22;;;;;;;11.43;84.52;98262.12;1678972;84;20983;-60
2022/07/16 02:08:07;;;;;;;5.28;1.10;;;;;;;11.37;84.77;98268.65;1676644;84;21538;-60
2022/07/16 02:10:36;;;;;;;3.60;1.15;;;;;;;11.31;84.91;98267.10;1672731;84;20956;-60
2022/07/16 02:13:03;;;;;;;1.55;1.10;;;;;;;11.26;85.17;98266.62;1680966;85;21119;-60
2022/07/16 02:15:30;;;;;;;2.45;1.10;;;;;;;11.27;85.33;98270.11;1679951;84;20909;-60
2022/07/16 02:17:57;;;;;;;4.25;1.27;;;;;;;11.25;85.47;98266.39;1679640;85;21000;-59
2022/07/16 02:20:23;;;;;;;2.33;1.00;;;;;;;11.27;85.59;98266.09;1673378;84;20951;-60
2022/07/16 02:22:52;;;;;;;1.75;0.98;;;;;;;11.28;85.63;98271.72;1680015;84;20964;-61
2022/07/16 02:25:19;;;;;;;1.55;0.80;;;;;;;11.26;85.57;98268.53;1677692;84;21091;-60
2022/07/16 02:30:32;;;;;;;5.40;1.05;;;;;;;11.23;85.44;98265.88;1675214;85;21318;-58
2022/07/16 02:33:00;;;;;;;5.08;1.27;;;;;;;11.21;85.63;98261.89;1679467;84;20964;-60
2022/07/16 02:35:26;;;;;;;2.35;1.20;;;;;;;11.19;85.91;98257.36;1682346;84;21055;-59
2022/07/16 02:37:52;;;;;;;1.75;0.93;;;;;;;11.17;86.11;98258.16;1683880;84;21133;-60
2022/07/16 02:40:19;;;;;;;2.87;1.12;;;;;;;11.14;86.09;98255.52;1675537;84;21110;-60
2022/07/16 02:42:46;;;;;;;2.55;1.17;;;;;;;11.10;86.02;98256.37;1677660;84;21496;-60
2022/07/16 02:45:13;;;;;;;2.98;1.10;;;;;;;11.05;86.07;98254.55;1680913;84;21028;-60
2022/07/16 02:47:41;;;;;;;3.05;1.20;;;;;;;11.02;86.07;98257.83;1680239;85;20956;-60
2022/07/16 02:50:08;;;;;;;2.42;1.07;;;;;;;11.00;86.12;98258.63;1680999;84;21890;-60
2022/07/16 02:52:35;;;;;;;4.30;1.20;;;;;;;10.99;86.11;98255.18;1681778;84;21484;-60
2022/07/16 02:55:04;;;;;;;5.25;1.17;;;;;;;11.00;86.16;98260.78;1679170;85;20952;-61
2022/07/16 02:57:31;;;;;;;2.92;1.22;;;;;;;10.99;86.18;98256.52;1673562;85;20968;-60
2022/07/16 02:59:57;;;;;;;2.42;1.27;;;;;;;10.98;86.29;98256.25;1679019;85;20972;-60
2022/07/16 03:02:24;;;;;;;8.45;1.40;;;;;;;10.96;86.26;98248.23;1678787;84;21134;-60
2022/07/16 03:04:51;;;;;;;3.95;1.05;;;;;;;10.96;86.36;98254.41;1678971;85;21035;-60
2022/07/16 03:07:18;;;;;;;1.67;1.07;;;;;;;10.97;86.45;98258.66;1676469;84;20951;-60
2022/07/16 03:09:44;;;;;;;2.37;1.37;;;;;;;10.98;86.44;98258.93;1680568;84;20909;-60
2022/07/16 03:12:11;;;;;;;2.25;0.90;;;;;;;11.02;86.51;98263.73;1679150;85;21059;-60
2022/07/16 03:14:38;;;;;;;3.42;1.30;;;;;;;11.02;86.41;98258.37;1681938;84;21245;-60
2022/07/16 03:17:05;;;;;;;3.62;1.27;;;;;;;11.03;86.49;98260.75;1682807;84;21009;-61
2022/07/16 03:19:32;;;;;;;3.33;1.05;;;;;;;11.04;86.46;98252.17;1674551;84;20941;-60
2022/07/16 03:21:59;;;;;;;3.05;1.55;;;;;;;11.06;86.55;98260.19;1651021;85;20916;-60
2022/07/16 03:24:26;;;;;;;5.80;1.40;;;;;;;11.10;86.66;98263.08;1676569;85;21008;-59
2022/07/16 03:26:52;;;;;;;2.62;1.20;;;;;;;11.13;86.72;98265.20;1673726;83;21134;-60
2022/07/16 03:29:19;;;;;;;3.62;1.30;;;;;;;11.11;86.66;98269.52;1680061;84;20944;-60
2022/07/16 03:31:45;;;;;;;2.58;1.07;;;;;;;11.12;86.79;98274.30;1681038;84;20916;-60
2022/07/16 03:34:12;;;;;;;2.35;1.17;;;;;;;11.15;86.66;98267.04;1677644;84;20948;-60
2022/07/16 03:36:39;;;;;;;3.85;1.30;;;;;;;11.18;86.60;98267.81;1682348;84;20983;-60
2022/07/16 03:39:05;;;;;;;2.22;1.10;;;;;;;11.21;86.59;98271.27;1674779;84;21313;-60
2022/07/16 03:41:36;;;;;;;3.77;1.45;;;;;;;11.21;86.69;98269.93;1678892;84;20944;-60
2022/07/16 03:44:05;;;;;;;4.65;1.10;;;;;;;11.21;86.89;98265.34;1676877;85;21038;-60
2022/07/16 03:46:32;;;;;;;3.95;1.10;;;;;;;11.22;87.09;98268.83;1675458;85;21054;-60
2022/07/16 03:48:59;;;;;;;3.95;1.02;;;;;;;11.24;87.26;98270.67;1675039;84;20992;-60
2022/07/16 03:51:26;;;;;;;4.15;0.93;;;;;;;11.27;87.30;98275.47;1676321;85;22126;-60
2022/07/16 03:53:52;;;;;;;4.65;1.40;;;;;;;11.26;87.14;98269.88;1672970;84;20907;-60
2022/07/16 03:56:19;;;;;;;9.33;1.35;;;;;;;11.30;87.38;98277.05;1657671;85;20884;-60
2022/07/16 03:58:46;;;;;;;2.83;1.22;;;;;;;11.36;87.40;98273.75;1679039;85;20952;-61
2022/07/16 04:01:12;;;;;;;2.00;1.12;;;;;;;11.44;87.11;98274.45;1675837;85;20917;-60
2022/07/16 04:03:39;;;;;;;3.22;1.20;;;;;;;11.52;87.42;98272.45;1678303;85;21244;-59
2022/07/16 04:06:06;;;;;;;6.03;1.22;;;;;;;11.59;87.40;98268.87;1680473;85;20960;-59
2022/07/16 04:08:32;;;;;;;6.35;1.45;;;;;;;11.64;87.21;98267.45;1679870;84;20924;-60
2022/07/16 04:11:00;;;;;;;4.53;1.17;;;;;;;11.65;87.12;98265.04;1674464;84;20976;-60
2022/07/16 04:13:27;;;;;;;11.10;1.70;;;;;;;11.65;87.22;98264.50;1682849;84;21058;-61
2022/07/16 04:15:54;;;;;;;4.45;1.77;;;;;;;11.69;87.31;98266.08;1682556;84;21121;-60
2022/07/16 04:18:20;;;;;;;8.43;1.77;;;;;;;11.74;87.54;98266.55;1680965;84;20913;-60
2022/07/16 04:20:47;;;;;;;8.55;1.50;;;;;;;11.83;87.60;98268.28;1680875;84;21107;-60
2022/07/16 04:23:14;;;;;;;5.85;1.50;;;;;;;11.95;87.68;98263.27;1679186;84;21007;-61
2022/07/16 04:25:41;;;;;;;7.05;1.37;;;;;;;12.05;87.65;98265.80;1671994;85;21004;-60
2022/07/16 04:28:08;;;;;;;9.80;1.42;;;;;;;12.17;87.39;98259.98;1669696;85;21769;-60
2022/07/16 04:30:34;;;;;;;3.87;1.47;;;;;;;12.28;87.06;98256.83;1678111;85;21020;-60
2022/07/16 04:33:01;;;;;;;6.30;1.40;;;;;;;12.37;86.44;98258.28;1673886;84;21003;-60
2022/07/16 04:35:28;;;;;;;7.40;1.70;;;;;;;12.48;86.12;98258.38;1676347;84;20956;-60
2022/07/16 04:37:54;;;;;;;10.40;1.77;;;;;;;12.59;85.73;98252.27;1678075;84;20881;-60
2022/07/16 04:40:21;;;;;;;8.93;1.50;;;;;;;12.66;85.26;98255.35;1681355;84;21130;-60
2022/07/16 04:42:48;;;;;;;6.05;1.77;;;;;;;12.73;84.87;98255.77;1677840;84;20998;-60
2022/07/16 04:45:14;;;;;;;7.72;1.47;;;;;;;12.81;84.27;98255.08;1652651;84;20877;-60
2022/07/16 04:47:43;;;;;;;8.33;1.47;;;;;;;12.89;83.87;98255.72;1662193;85;21456;-60
2022/07/16 04:50:10;;;;;;;9.55;1.67;;;;;;;12.95;83.52;98259.34;1668736;85;21498;-60
2022/07/16 04:52:36;;;;;;;7.17;1.25;;;;;;;13.03;82.73;98253.83;1679917;84;21071;-60
2022/07/16 04:55:04;;;;;;;4.80;1.02;;;;;;;13.15;82.06;98257.38;1679328;84;21055;-60
2022/07/16 04:57:30;;;;;;;4.83;1.30;;;;;;;13.24;81.20;98256.37;1675228;84;21087;-60
2022/07/16 04:59:57;;;;;;;4.33;1.10;;;;;;;13.34;80.15;98254.03;1671927;84;20975;-60
2022/07/16 05:05:09;;;;;;;5.40;1.43;;;;;;;13.56;77.07;98253.55;1676001;84;21259;-59
2022/07/16 05:07:37;;;;;;;3.98;1.00;;;;;;;13.67;75.82;98254.91;1679317;85;21591;-59
2022/07/16 05:10:06;;;;;;;2.30;1.05;;;;;;;13.76;74.53;98259.02;1675643;84;20944;-60
2022/07/16 05:12:32;;;;;;;3.37;1.12;;;;;;;13.85;72.88;98257.19;1673379;84;21011;-60
2022/07/16 05:15:00;;;;;;;4.78;1.12;;;;;;;13.93;72.40;98263.74;1682482;85;20981;-59
2022/07/16 05:17:27;;;;;;;3.85;0.90;;;;;;;13.98;70.35;98263.63;1675843;85;21133;-59
2022/07/16 05:19:54;;;;;;;2.87;1.02;;;;;;;14.04;70.45;98261.85;1678416;84;21396;-59
2022/07/16 05:22:21;;;;;;;2.75;0.90;;;;;;;14.11;69.92;98261.42;1675633;84;21118;-59
2022/07/16 05:24:48;;;;;;;5.53;1.27;;;;;;;14.17;69.47;98261.55;1674496;84;20984;-59
2022/07/16 05:27:14;;;;;;;1.55;0.80;;;;;;;14.23;68.35;98256.28;1681867;84;21012;-60
2022/07/16 05:29:41;;;;;;;2.20;1.00;;;;;;;14.28;67.14;98253.45;1675330;84;22099;-61
2022/07/16 05:32:07;;;;;;;5.10;1.25;;;;;;;14.33;67.18;98256.86;1663549;84;21570;-62
2022/07/16 05:34:34;;;;;;;3.15;1.00;;;;;;;14.39;67.04;98257.52;1677920;85;20920;-62
2022/07/16 05:37:00;;;;;;;4.72;1.10;;;;;;;14.43;66.38;98258.51;1681371;84;21082;-62
2022/07/16 05:39:27;;;;;;;4.42;1.00;;;;;;;14.49;66.05;98261.85;1679378;84;21004;-61
2022/07/16 05:41:53;;;;;;;4.60;1.10;;;;;;;14.55;66.50;98258.73;1681951;84;21249;-61
2022/07/16 05:44:22;;;;;;;5.75;1.30;;;;;;;14.62;66.92;98253.70;1680486;84;20877;-61
2022/07/16 05:46:48;;;;;;;4.55;1.05;;;;;;;14.70;66.90;98261.56;1681374;84;20916;-61
2022/07/16 05:49:15;;;;;;;4.30;1.45;;;;;;;14.77;65.53;98263.27;1677987;84;20913;-60
2022/07/16 05:51:41;;;;;;;6.22;1.57;;;;;;;14.85;64.48;98263.32;1679950;85;20917;-61
2022/07/16 05:54:08;;;;;;;3.27;1.07;;;;;;;14.96;65.14;98265.98;1673026;84;21133;-61
2022/07/16 05:56:35;;;;;;;7.67;1.40;;;;;;;15.07;65.22;98265.16;1665829;84;20902;-61
2022/07/16 05:59:02;;;;;;;6.60;1.67;;;;;;;15.16;65.20;98256.53;1677518;84;20870;-61
2022/07/16 06:01:29;;;;;;;4.40;1.27;;;;;;;15.26;65.03;98252.17;1676655;85;21073;-61
2022/07/16 06:03:56;;;;;;;8.05;1.25;;;;;;;15.36;64.87;98252.44;1673740;84;21016;-61
2022/07/16 06:06:23;;;;;;;9.23;1.70;;;;;;;15.43;63.86;98251.41;1675360;85;21300;-61
2022/07/16 06:08:49;;;;;;;4.25;1.25;;;;;;;15.49;63.98;98255.05;1669608;85;21000;-62
2022/07/16 06:11:17;;;;;;;4.22;1.50;;;;;;;15.55;64.32;98252.98;1682853;84;21068;-60
2022/07/16 06:13:44;;;;;;;3.60;1.10;;;;;;;15.61;64.15;98255.78;1676114;84;21036;-61
2022/07/16 06:16:11;;;;;;;6.75;1.42;;;;;;;15.69;63.94;98255.78;1675299;84;21007;-61
2022/07/16 06:21:10;;;;;;;4.12;1.22;;;;;;;15.84;63.70;98255.87;1665910;84;20987;-60
2022/07/16 06:23:37;;;;;;;8.05;1.87;;;;;;;15.93;63.23;98251.81;1655952;85;21602;-60
2022/07/16 06:26:03;;;;;;;4.70;1.45;;;;;;;15.98;62.78;98257.05;1679595;85;21068;-60
2022/07/16 06:28:30;;;;;;;1.82;0.98;;;;;;;16.04;62.68;98264.67;1676782;84;21076;-61
2022/07/16 06:30:56;;;;;;;3.40;0.93;;;;;;;16.13;63.06;98262.75;1678762;84;21057;-60
2022/07/16 06:33:22;;;;;;;6.87;1.20;;;;;;;16.21;61.53;98259.27;1684470;84;21434;-61
2022/07/16 06:35:49;;;;;;;5.20;1.05;;;;;;;16.30;59.74;98259.23;1684831;84;32482;-60
2022/07/16 06:38:16;;;;;;;4.10;1.02;;;;;;;16.36;59.12;98256.63;1682155;84;21046;-61
2022/07/16 06:40:44;;;;;;;7.17;1.27;;;;;;;16.41;57.09;98256.45;1677475;84;20988;-61
2022/07/16 06:43:11;;;;;;;3.60;1.22;;;;;;;16.44;56.64;98262.00;1683509;84;21136;-60
2022/07/16 06:45:43;;;;;;;4.55;1.22;;;;;;;16.48;55.73;98260.02;1677503;84;20872;-59
2022/07/16 06:48:10;;;;;;;3.80;1.42;;;;;;;16.52;55.29;98251.52;1684017;84;21487;-62
2022/07/16 06:50:37;;;;;;;5.60;1.15;;;;;;;16.54;55.66;98261.45;1679739;84;21522;-61
2022/07/16 06:53:03;;;;;;;5.03;1.25;;;;;;;16.56;56.24;98259.24;1678291;84;20901;-61
2022/07/16 06:55:31;;;;;;;3.85;1.20;;;;;;;16.60;56.48;98261.53;1677074;83;21250;-61
2022/07/16 06:57:58;;;;;;;2.87;1.05;;;;;;;16.64;56.98;98262.47;1672031;85;21606;-61
2022/07/16 07:00:24;;;;;;;3.62;1.00;;;;;;;16.67;55.25;98266.69;1678355;85;21093;-60
2022/07/16 07:02:51;;;;;;;2.50;1.10;;;;;;;16.70;55.31;98260.61;1675910;84;21566;-62
2022/07/16 07:05:17;;;;;;;3.47;1.12;;;;;;;16.76;56.07;98261.23;1673037;84;21491;-62
2022/07/16 07:07:44;;;;;;;3.67;1.00;;;;;;;16.82;55.30;98249.11;1650555;85;21289;-61
2022/07/16 07:10:11;;;;;;;3.72;1.02;;;;;;;16.91;56.61;98255.30;1675157;84;21186;-62
2022/07/16 07:12:37;;;;;;;3.27;1.10;;;;;;;17.00;56.36;98250.65;1676515;83;20972;-62
2022/07/16 07:15:05;;;;;;;3.52;0.82;;;;;;;17.05;55.83;98245.83;1679343;85;21091;-62
2022/07/16 07:17:34;;;;;;;2.40;1.07;;;;;;;17.08;54.03;98241.67;1678328;84;21031;-62
2022/07/16 07:20:00;;;;;;;3.62;0.95;;;;;;;17.09;52.92;98240.02;1653010;85;21115;-61
2022/07/16 07:22:28;;;;;;;4.22;1.35;;;;;;;17.16;54.10;98240.05;1681777;84;20924;-60
2022/07/16 07:24:55;;;;;;;1.87;0.70;;;;;;;17.27;54.35;98241.25;1676990;84;20912;-61
2022/07/16 07:27:22;;;;;;;5.03;1.00;;;;;;;17.37;54.09;98246.30;1675706;85;20948;-60
2022/07/16 07:29:49;;;;;;;3.80;0.90;;;;;;;17.44;52.72;98239.25;1682535;84;20912;-60
2022/07/16 07:32:15;;;;;;;2.42;0.82;;;;;;;17.47;49.16;98237.80;1679634;85;21150;-60
2022/07/16 07:34:42;;;;;;;3.35;1.22;;;;;;;17.50;49.54;98242.58;1677634;85;21115;-60
2022/07/16 07:37:09;;;;;;;0.93;0.70;;;;;;;17.50;48.20;98240.63;1676542;85;20984;-60
2022/07/16 07:39:36;;;;;;;2.27;0.90;;;;;;;17.55;51.28;98237.77;1688017;84;20916;-60
2022/07/16 07:42:03;;;;;;;1.90;0.80;;;;;;;17.68;52.19;98241.35;1670477;85;20979;-60
2022/07/16 07:44:29;;;;;;;3.22;0.80;;;;;;;17.83;49.36;98235.91;1684470;83;21245;-60
2022/07/16 07:46:56;;;;;;;3.20;1.20;;;;;;;17.92;49.06;98230.65;1682700;85;20980;-61
2022/07/16 07:49:22;;;;;;;1.02;0.70;;;;;;;18.00;50.09;98224.34;1679048;85;20972;-59
2022/07/16 07:51:49;;;;;;;4.12;1.00;;;;;;;18.10;50.18;98221.78;1672483;84;21075;-60
2022/07/16 07:54:15;;;;;;;5.62;1.20;;;;;;;18.21;50.14;98229.72;1677036;84;21483;-60
2022/07/16 07:56:43;;;;;;;1.75;0.72;;;;;;;18.28;48.26;98229.41;1678701;85;21119;-60
2022/07/16 07:59:10;;;;;;;3.77;0.95;;;;;;;18.32;47.56;98227.61;1681531;84;20901;-61
2022/07/16 08:01:36;;;;;;;3.15;1.07;;;;;;;18.38;47.00;98226.84;1676464;84;21507;-61
2022/07/16 08:04:03;;;;;;;4.80;1.10;;;;;;;18.41;47.31;98227.55;1674707;84;21520;-61
2022/07/16 08:06:30;;;;;;;2.08;0.90;;;;;;;18.43;46.35;98223.92;1678466;84;20920;-61
2022/07/16 08:08:57;;;;;;;7.95;0.90;;;;;;;18.47;47.13;98218.08;1671897;85;21182;-61
2022/07/16 08:11:24;;;;;;;4.30;0.93;;;;;;;18.53;46.14;98219.47;1681667;84;21433;-62
2022/07/16 08:13:50;;;;;;;2.45;1.05;;;;;;;18.58;46.83;98219.26;1671573;85;21456;-61
2022/07/16 08:16:17;;;;;;;6.78;1.40;;;;;;;18.62;45.28;98216.09;1673902;84;20960;-61
2022/07/16 08:18:44;;;;;;;3.65;1.00;;;;;;;18.59;44.48;98219.47;1681965;84;21071;-61
2022/07/16 08:21:11;;;;;;;4.20;0.98;;;;;;;18.54;45.23;98216.97;1680722;84;21136;-60
2022/07/16 08:26:22;;;;;;;2.17;1.00;;;;;;;18.65;46.05;98224.92;1651844;85;20973;-60
2022/07/16 08:28:49;;;;;;;3.85;0.78;;;;;;;18.78;46.79;98218.92;1657392;84;21523;-60
2022/07/16 08:31:15;;;;;;;2.87;0.98;;;;;;;18.85;43.41;98223.23;1676155;85;20960;-61
2022/07/16 08:33:42;;;;;;;2.95;0.80;;;;;;;18.77;42.49;98219.48;1682774;84;21181;-61
2022/07/16 08:36:09;;;;;;;3.02;0.93;;;;;;;18.70;43.49;98221.96;1665657;85;21436;-60
2022/07/16 08:38:35;;;;;;;4.75;1.10;;;;;;;18.74;42.70;98217.47;1682662;84;21063;-60
2022/07/16 08:41:02;;;;;;;5.00;1.10;;;;;;;18.72;43.09;98218.93;1679565;84;20956;-61
2022/07/16 08:43:30;;;;;;;5.85;1.00;;;;;;;18.73;42.67;98230.80;1651569;85;20944;-59
2022/07/16 08:45:58;;;;;;;3.42;1.10;;;;;;;18.74;42.85;98224.25;1680157;84;21514;-60
2022/07/16 08:48:24;;;;;;;7.20;1.02;;;;;;;18.76;42.74;98219.27;1678848;84;20940;-60
2022/07/16 08:50:53;;;;;;;2.05;0.90;;;;;;;18.83;44.88;98216.80;1678665;85;20941;-60
2022/07/16 08:53:23;;;;;;;1.72;0.70;;;;;;;18.95;45.45;98214.65;1683543;84;21051;-62
2022/07/16 08:55:54;;;;;;;5.45;1.20;;;;;;;19.08;44.58;98214.86;1679560;85;21122;-60
2022/07/16 08:58:22;;;;;;;2.35;1.00;;;;;;;19.19;42.69;98217.92;1684172;84;21117;-60
2022/07/16 09:00:50;;;;;;;5.80;0.82;;;;;;;19.22;42.96;98213.18;1675284;84;21072;-60
2022/07/16 09:03:16;;;;;;;2.33;1.00;;;;;;;19.30;42.39;98212.25;1678536;85;20992;-61
2022/07/16 09:05:42;;;;;;;3.83;0.90;;;;;;;19.34;41.82;98213.14;1673296;85;21695;-60
2022/07/16 09:08:09;;;;;;;2.87;1.22;;;;;;;19.31;43.45;98210.57;1666217;85;20979;-61
2022/07/16 09:10:38;;;;;;;3.98;1.37;;;;;;;19.39;43.02;98204.80;1674986;84;21210;-60
2022/07/16 09:13:09;;;;;;;2.25;0.90;;;;;;;19.55;42.84;98218.69;1674546;85;20876;-61
2022/07/16 09:15:35;;;;;;;4.80;1.25;;;;;;;19.67;40.97;98208.35;1678451;84;21431;-60
2022/07/16 09:18:23;;;;;;;2.67;1.07;;;;;;;19.72;41.57;98209.48;1677859;84;20976;-62
2022/07/16 09:20:58;;;;;;;6.78;1.00;;;;;;;19.81;41.83;98208.77;1673444;84;21003;-62
2022/07/16 09:23:36;;;;;;;3.40;0.80;;;;;;;19.98;42.77;98207.12;1682328;84;21131;-61
2022/07/16 09:26:06;;;;;;;1.65;0.72;;;;;;;20.07;42.30;98196.89;1676490;84;20881;-59
2022/07/16 09:28:45;;;;;;;6.65;0.90;;;;;;;20.12;42.33;98207.52;1682302;84;20908;-61
2022/07/16 09:31:13;;;;;;;2.02;0.98;;;;;;;20.24;41.39;98208.85;1678465;84;21460;-60
2022/07/16 09:33:39;;;;;;;2.42;1.02;;;;;;;20.39;40.67;98203.23;1655441;85;21000;-59
2022/07/16 09:36:11;;;;;;;4.42;1.10;;;;;;;20.44;40.65;98205.70;1678305;85;20995;-61
2022/07/16 09:38:50;;;;;;;2.10;0.90;;;;;;;20.44;42.29;98194.22;1681135;84;20963;-61
2022/07/16 09:41:18;;;;;;;1.87;0.70;;;;;;;20.64;42.18;98195.69;1669188;84;20912;-60
2022/07/16 09:43:46;;;;;;;5.55;1.00;;;;;;;20.88;41.07;98192.80;1681496;84;21437;-60
2022/07/16 09:46:22;;;;;;;4.22;1.00;;;;;;;21.07;40.80;98186.89;1681406;84;20916;-61
2022/07/16 09:48:50;;;;;;;3.22;0.82;;;;;;;21.27;40.62;98180.91;1682494;84;21226;-61
2022/07/16 09:51:25;;;;;;;2.27;1.00;;;;;;;21.48;40.87;98184.09;1681065;84;21007;-61
2022/07/16 09:53:53;;;;;;;1.80;0.82;;;;;;;21.59;38.54;98190.59;1678307;84;20992;-62
2022/07/16 09:56:27;;;;;;;2.62;0.93;;;;;;;21.47;38.47;98197.52;1651780;85;21583;-62
2022/07/16 09:58:57;;;;;;;2.40;0.80;;;;;;;21.32;38.59;98194.25;1680601;84;20960;-62
2022/07/16 10:01:25;;;;;;;2.87;0.90;;;;;;;21.21;39.15;98186.98;1682676;84;21130;-62
2022/07/16 10:03:52;;;;;;;4.28;0.70;;;;;;;21.13;40.02;98188.19;1679112;84;21534;-61
2022/07/16 10:06:20;;;;;;;2.05;0.90;;;;;;;21.06;40.18;98192.11;1674642;85;21013;-62
2022/07/16 10:08:47;;;;;;;2.95;0.90;;;;;;;20.93;39.30;98182.44;1679380;84;20960;-61
2022/07/16 10:11:14;;;;;;;1.98;0.80;;;;;;;20.77;40.36;98184.95;1679344;85;20904;-61
2022/07/16 10:13:44;;;;;;;3.20;1.22;;;;;;;20.88;41.19;98181.91;1678167;85;20981;-62
2022/07/16 10:16:11;;;;;;;1.57;0.82;;;;;;;21.04;40.22;98177.23;1682630;84;20983;-62
2022/07/16 10:18:46;;;;;;;1.92;0.70;;;;;;;21.09;39.30;98183.80;1679104;85;20924;-62
2022/07/16 10:21:17;;;;;;;2.42;1.02;;;;;;;21.03;38.95;98178.39;1674766;84;21499;-62
2022/07/16 10:23:47;;;;;;;3.92;0.80;;;;;;;20.96;39.34;98183.08;1673634;84;20944;-61
2022/07/16 10:26:22;;;;;;;2.17;0.90;;;;;;;21.05;41.11;98172.05;1679204;85;21198;-61
2022/07/16 10:28:51;;;;;;;6.90;1.30;;;;;;;21.29;40.49;98173.16;1680525;84;20933;-59
2022/07/16 10:31:38;;;;;;;3.10;1.00;;;;;;;21.54;39.00;98183.25;1681254;84;20913;-61
2022/07/16 10:34:19;;;;;;;1.55;0.80;;;;;;;21.64;39.91;98172.59;1674948;84;20968;-61
2022/07/16 10:36:52;;;;;;;2.42;0.90;;;;;;;21.81;40.29;98161.23;1681392;84;21416;-60
2022/07/16 10:39:21;;;;;;;5.15;0.98;;;;;;;21.94;39.43;98155.67;1678580;84;21186;-60
2022/07/16 10:41:54;;;;;;;4.62;0.80;;;;;;;22.04;39.03;98156.45;1678120;84;21609;-61
2022/07/16 10:44:23;;;;;;;3.35;0.90;;;;;;;22.08;40.19;98154.58;1680220;84;21546;-61
2022/07/16 10:46:57;;;;;;;3.47;1.00;;;;;;;22.05;39.49;98147.91;1650551;85;21014;-61
2022/07/16 10:49:25;;;;;;;6.50;1.10;;;;;;;21.95;40.12;98149.08;1675270;85;20912;-61
2022/07/16 10:52:14;;;;;;;2.12;0.88;;;;;;;21.80;40.23;98141.95;1682352;84;21209;-61
2022/07/16 10:54:39;;;;;;;3.58;0.82;;;;;;;21.65;39.35;98156.44;1679228;84;20983;-61
2022/07/16 10:57:07;;;;;;;2.62;0.90;;;;;;;21.36;39.02;98151.52;1681020;84;21519;-61
2022/07/16 10:59:40;;;;;;;3.08;0.90;;;;;;;21.10;40.10;98148.63;1682560;84;20937;-60
2022/07/16 11:02:15;;;;;;;3.02;1.10;;;;;;;20.94;39.89;98147.25;1674962;84;20929;-62
2022/07/16 11:04:45;;;;;;;5.08;1.27;;;;;;;20.84;40.08;98145.66;1682110;84;21107;-62
2022/07/16 11:07:15;;;;;;;2.60;0.80;;;;;;;20.76;40.19;98154.22;1673235;85;21058;-62
2022/07/16 11:09:48;;;;;;;2.37;1.00;;;;;;;20.72;40.32;98145.19;1673868;85;20877;-62
2022/07/16 11:12:18;;;;;;;2.52;1.02;;;;;;;20.78;41.78;98145.69;1675834;84;20908;-62
2022/07/16 11:14:48;;;;;;;2.77;0.95;;;;;;;20.92;41.23;98150.10;1679587;84;21158;-62
2022/07/16 11:17:18;;;;;;;4.08;1.15;;;;;;;20.98;40.56;98141.90;1678228;84;21259;-60
2022/07/16 11:19:50;;;;;;;2.55;0.70;;;;;;;21.06;41.61;98146.38;1679025;84;21534;-60
2022/07/16 11:22:20;;;;;;;3.33;0.90;;;;;;;21.13;40.28;98153.34;1679673;85;20960;-61
2022/07/16 11:24:50;;;;;;;2.95;0.85;;;;;;;21.09;40.51;98149.77;1674530;84;21003;-61
2022/07/16 11:27:17;;;;;;;4.72;1.00;;;;;;;21.05;40.53;98146.97;1674723;84;21043;-61
2022/07/16 11:29:43;;;;;;;4.22;1.10;;;;;;;21.00;40.56;98147.78;1666604;84;21180;-61
2022/07/16 11:32:16;;;;;;;1.30;0.72;;;;;;;21.02;41.83;98146.28;1680937;85;21024;-61
2022/07/16 11:34:42;;;;;;;2.70;0.90;;;;;;;21.07;40.46;98147.97;1675250;85;21392;-61
2022/07/16 11:37:10;;;;;;;4.05;1.12;;;;;;;21.05;40.50;98149.70;1686522;84;21467;-61
2022/07/16 11:39:38;;;;;;;3.55;1.07;;;;;;;21.02;40.01;98150.37;1675497;85;21440;-61
2022/07/16 11:42:05;;;;;;;3.35;1.00;;;;;;;20.97;41.01;98155.28;1679341;85;21132;-61
2022/07/16 11:44:33;;;;;;;5.20;1.72;;;;;;;20.93;41.51;98155.78;1679143;85;21432;-61
2022/07/16 11:47:03;;;;;;;4.78;1.70;;;;;;;20.95;39.66;98152.12;1682040;84;20979;-60
2022/07/16 11:49:41;;;;;;;4.33;1.12;;;;;;;20.98;40.25;98150.06;1676788;85;21091;-61